createdAt,value
2023-01-17T00:01:35.068Z,54.63
2023-01-17T00:04:27.879Z,72.70
2023-01-17T00:07:29.961Z,68.20
2023-01-17T00:09:58.993Z,71.38
2023-01-17T00:12:31.213Z,73.53
2023-01-17T00:14:59.001Z,66.00
2023-01-17T00:17:27.851Z,58.27
2023-01-17T00:20:14.164Z,83.20
2023-01-17T00:23:01.964Z,64.68
2023-01-17T00:25:50.175Z,72.68
2023-01-17T00:28:17.083Z,48.72
2023-01-17T00:30:43.825Z,66.67
2023-01-17T00:33:10.554Z,47.10
2023-01-17T00:35:37.260Z,50.05
2023-01-17T00:38:11.952Z,61.72
2023-01-17T00:40:40.410Z,53.80
2023-01-17T00:43:26.097Z,51.40
2023-01-17T00:46:11.470Z,51.47
2023-01-17T00:48:57.320Z,61.70
2023-01-17T00:51:43.265Z,64.40
2023-01-17T00:54:28.543Z,55.72
2023-01-17T00:57:14.299Z,59.13
2023-01-17T00:59:59.845Z,53.58
2023-01-17T01:02:45.757Z,52.95
2023-01-17T01:05:32.029Z,47.40
2023-01-17T01:08:17.880Z,50.72
2023-01-17T01:11:04.048Z,50.37
2023-01-17T01:13:49.872Z,49.28
2023-01-17T01:16:36.344Z,47.42
2023-01-17T01:19:22.243Z,39.30
2023-01-17T01:22:07.573Z,41.72
2023-01-17T01:24:52.984Z,42.80
2023-01-17T01:27:38.330Z,45.42
2023-01-17T01:30:24.317Z,49.65
2023-01-17T01:33:09.589Z,46.78
2023-01-17T01:35:37.048Z,48.88
2023-01-17T01:38:03.892Z,45.43
2023-01-17T01:40:30.679Z,49.40
2023-01-17T01:42:59.866Z,44.90
2023-01-17T01:45:29.203Z,42.47
2023-01-17T01:48:23.774Z,42.28
2023-01-17T01:50:50.964Z,37.30
2023-01-17T01:53:20.466Z,41.25
2023-01-17T01:55:49.281Z,43.67
2023-01-17T01:58:20.299Z,35.10
2023-01-17T02:00:47.237Z,32.03
2023-01-17T02:03:18.062Z,30.33
2023-01-17T02:05:44.961Z,25.83
2023-01-17T02:08:15.365Z,23.23
2023-01-17T02:10:43.968Z,16.48
2023-01-17T02:13:12.221Z,19.20
2023-01-17T02:15:45.152Z,24.23
2023-01-17T02:18:26.911Z,23.58
2023-01-17T02:20:58.182Z,23.90
2023-01-17T02:23:52.997Z,26.33
2023-01-17T02:26:54.336Z,25.80
2023-01-17T02:29:36.197Z,25.80
2023-01-17T02:32:24.558Z,24.55
2023-01-17T02:35:05.200Z,23.90
2023-01-17T02:37:38.048Z,25.85
2023-01-17T02:40:14.734Z,23.20
2023-01-17T02:42:46.069Z,28.67
2023-01-17T02:45:18.118Z,23.73
2023-01-17T02:47:45.087Z,27.48
2023-01-17T02:50:19.054Z,28.45
2023-01-17T02:53:08.611Z,25.15
2023-01-17T02:55:42.533Z,28.93
2023-01-17T02:58:16.723Z,27.33
2023-01-17T03:00:43.451Z,32.08
2023-01-17T03:03:28.214Z,31.30
2023-01-17T03:05:59.899Z,29.85
2023-01-17T03:08:27.429Z,30.13
2023-01-17T03:10:55.051Z,29.20
2023-01-17T03:13:21.784Z,30.25
2023-01-17T03:15:48.612Z,29.48
2023-01-17T03:18:16.117Z,28.60
2023-01-17T03:20:42.841Z,27.50
2023-01-17T03:23:09.655Z,30.10
2023-01-17T03:25:36.420Z,32.50
2023-01-17T03:28:03.535Z,26.42
2023-01-17T03:30:30.335Z,26.23
2023-01-17T03:32:57.097Z,28.57
2023-01-17T03:35:23.928Z,31.23
2023-01-17T03:37:50.704Z,28.30
2023-01-17T03:40:17.507Z,25.92
2023-01-17T03:42:44.408Z,26.90
2023-01-17T03:45:11.585Z,28.67
2023-01-17T03:47:38.361Z,27.17
2023-01-17T03:50:05.773Z,27.65
2023-01-17T03:52:32.631Z,27.20
2023-01-17T03:54:59.626Z,26.35
2023-01-17T03:57:26.356Z,26.57
2023-01-17T03:59:53.066Z,24.75
2023-01-17T04:02:19.964Z,27.27
2023-01-17T04:04:46.740Z,27.27
2023-01-17T04:07:13.500Z,24.80
2023-01-17T04:09:40.241Z,26.47
2023-01-17T04:12:07.262Z,32.22
2023-01-17T04:14:34.039Z,27.40
2023-01-17T04:17:01.414Z,26.42
2023-01-17T04:19:28.210Z,24.10
2023-01-17T04:21:55.027Z,24.00
2023-01-17T04:24:21.788Z,22.05
2023-01-17T04:26:48.543Z,22.95
2023-01-17T04:29:15.263Z,23.92
2023-01-17T04:31:42.087Z,23.05
2023-01-17T04:34:08.835Z,23.37
2023-01-17T04:36:35.731Z,23.48
2023-01-17T04:39:02.517Z,21.17
2023-01-17T04:41:29.298Z,20.67
2023-01-17T04:43:56.062Z,20.52
2023-01-17T04:46:22.850Z,15.17
2023-01-17T04:48:49.625Z,11.50
2023-01-17T04:51:16.342Z,10.88
2023-01-17T04:53:43.131Z,11.43
2023-01-17T04:56:09.837Z,8.25
2023-01-17T04:58:36.587Z,8.63
2023-01-17T05:01:04.712Z,8.93
2023-01-17T05:03:34.068Z,9.50
2023-01-17T05:06:01.055Z,7.57
2023-01-17T05:08:28.081Z,8.52
2023-01-17T05:10:54.844Z,8.10
2023-01-17T05:13:21.680Z,9.25
2023-01-17T05:15:48.526Z,9.73
2023-01-17T05:18:16.872Z,6.90
2023-01-17T05:20:45.710Z,8.63
2023-01-17T05:23:12.887Z,7.30
2023-01-17T05:25:44.490Z,7.20
2023-01-17T05:28:12.330Z,5.38
2023-01-17T05:30:39.179Z,6.03
2023-01-17T05:33:06.004Z,7.53
2023-01-17T05:35:32.871Z,9.33
2023-01-17T05:37:59.697Z,7.55
2023-01-17T05:40:29.013Z,6.22
2023-01-17T05:42:57.527Z,6.75
2023-01-17T05:45:26.016Z,7.93
2023-01-17T05:47:53.892Z,4.97
2023-01-17T05:50:31.260Z,5.80
2023-01-17T05:53:00.591Z,5.82
2023-01-17T05:55:27.930Z,5.15
2023-01-17T05:57:54.922Z,4.20
2023-01-17T06:00:22.814Z,5.00
2023-01-17T06:02:50.109Z,4.45
2023-01-17T06:05:17.180Z,4.60
2023-01-17T06:07:47.141Z,4.50
2023-01-17T06:10:14.832Z,4.28
2023-01-17T06:12:42.286Z,3.63
2023-01-17T06:15:09.555Z,2.08
2023-01-17T06:17:36.774Z,2.58
2023-01-17T06:20:05.331Z,3.58
2023-01-17T06:22:32.909Z,2.90
2023-01-17T06:24:59.629Z,3.40
2023-01-17T06:27:26.602Z,3.38
2023-01-17T06:29:53.410Z,3.42
2023-01-17T06:32:20.256Z,3.03
2023-01-17T06:34:46.998Z,5.20
2023-01-17T06:37:13.731Z,6.80
2023-01-17T06:39:40.478Z,4.70
2023-01-17T06:42:07.256Z,3.80
2023-01-17T06:44:34.037Z,2.70
2023-01-17T06:47:00.863Z,4.60
2023-01-17T06:49:27.710Z,4.60
2023-01-17T06:51:54.569Z,6.38
2023-01-17T06:54:21.414Z,3.45
2023-01-17T06:56:48.191Z,2.05
2023-01-17T06:59:14.920Z,3.13
2023-01-17T07:01:42.064Z,3.53
2023-01-17T07:04:09.282Z,1.98
2023-01-17T07:06:36.775Z,2.42
2023-01-17T07:09:04.403Z,3.67
2023-01-17T07:11:31.528Z,2.53
2023-01-17T07:13:58.371Z,1.87
2023-01-17T07:16:25.298Z,2.38
2023-01-17T07:18:53.277Z,2.47
2023-01-17T07:21:20.158Z,3.38
2023-01-17T07:23:48.209Z,2.05
2023-01-17T07:26:17.262Z,2.90
2023-01-17T07:28:46.076Z,2.67
2023-01-17T07:31:12.880Z,2.97
2023-01-17T07:33:39.614Z,2.35
2023-01-17T07:36:07.564Z,2.45
2023-01-17T07:38:34.943Z,2.77
2023-01-17T07:41:01.818Z,4.15
2023-01-17T07:43:28.858Z,3.28
2023-01-17T07:45:55.947Z,2.92
2023-01-17T07:48:24.292Z,2.40
2023-01-17T07:50:53.225Z,2.27
2023-01-17T07:53:20.850Z,1.08
2023-01-17T07:55:47.649Z,1.33
2023-01-17T07:58:15.035Z,0.90
2023-01-17T08:00:44.334Z,2.65
2023-01-17T08:03:16.242Z,0.50
2023-01-17T08:05:44.512Z,0.80
2023-01-17T08:08:11.320Z,1.30
2023-01-17T08:10:38.120Z,1.73
2023-01-17T08:13:04.960Z,0.73
2023-01-17T08:15:32.263Z,2.22
2023-01-17T08:17:59.149Z,1.30
2023-01-17T08:20:27.975Z,1.65
2023-01-17T08:22:56.029Z,2.88
2023-01-17T08:25:26.017Z,5.90
2023-01-17T08:27:56.915Z,5.63
2023-01-17T08:30:24.071Z,4.40
2023-01-17T08:32:50.827Z,3.28
2023-01-17T08:35:17.644Z,2.47
2023-01-17T08:37:44.513Z,2.55
2023-01-17T08:40:11.981Z,4.47
2023-01-17T08:42:41.548Z,2.28
2023-01-17T08:45:09.579Z,1.23
2023-01-17T08:47:36.958Z,0.60
2023-01-17T08:50:06.736Z,1.08
2023-01-17T08:52:33.953Z,0.40
2023-01-17T08:55:00.888Z,1.08
2023-01-17T08:57:27.844Z,0.65
2023-01-17T08:59:54.601Z,1.65
2023-01-17T09:02:21.472Z,0.90
2023-01-17T09:04:49.715Z,1.67
2023-01-17T09:07:18.262Z,1.13
2023-01-17T09:09:45.519Z,1.15
2023-01-17T09:12:12.626Z,1.00
2023-01-17T09:14:39.459Z,1.63
2023-01-17T09:17:07.170Z,1.53
2023-01-17T09:19:35.504Z,0.60
2023-01-17T09:22:04.860Z,1.40
2023-01-17T09:24:33.446Z,1.75
2023-01-17T09:27:00.363Z,1.70
2023-01-17T09:29:27.908Z,1.13
2023-01-17T09:31:54.949Z,1.30
2023-01-17T09:34:21.863Z,0.82
2023-01-17T09:36:48.605Z,0.75
2023-01-17T09:39:15.380Z,1.50
2023-01-17T09:41:44.943Z,1.03
2023-01-17T09:44:27.079Z,0.90
2023-01-17T09:46:57.085Z,1.58
2023-01-17T09:49:40.786Z,0.65
2023-01-17T09:52:20.823Z,1.13
2023-01-17T09:54:50.934Z,1.30
2023-01-17T09:57:45.008Z,1.10
2023-01-17T10:00:20.768Z,1.58
2023-01-17T10:03:03.507Z,1.95
2023-01-17T10:05:50.548Z,1.00
2023-01-17T10:08:26.449Z,1.50
2023-01-17T10:11:07.091Z,1.48
2023-01-17T10:13:46.484Z,2.25
2023-01-17T10:16:46.260Z,1.85
2023-01-17T10:19:36.937Z,1.50
2023-01-17T10:22:31.159Z,1.20
2023-01-17T10:25:01.333Z,1.33
2023-01-17T10:27:38.049Z,1.88
2023-01-17T10:30:16.579Z,1.70
2023-01-17T10:32:48.314Z,3.65
2023-01-17T10:35:25.912Z,2.27
2023-01-17T10:37:57.483Z,2.42
2023-01-17T10:40:32.185Z,2.53
2023-01-17T10:43:20.223Z,3.13
2023-01-17T10:45:55.587Z,3.25
2023-01-17T10:48:34.347Z,1.80
2023-01-17T10:51:31.405Z,1.63
2023-01-17T10:54:01.950Z,2.20
2023-01-17T10:56:29.601Z,1.63
2023-01-17T10:59:16.143Z,3.60
2023-01-17T11:01:45.626Z,2.90
2023-01-17T11:04:19.881Z,3.05
2023-01-17T11:06:57.845Z,3.30
2023-01-17T11:09:41.682Z,4.30
2023-01-17T11:12:22.896Z,2.00
2023-01-17T11:15:22.007Z,1.83
2023-01-17T11:18:01.797Z,1.40
2023-01-17T11:20:40.741Z,5.25
2023-01-17T11:23:14.720Z,1.42
2023-01-17T11:25:51.350Z,1.55
2023-01-17T11:28:31.442Z,1.30
2023-01-17T11:31:07.642Z,2.15
2023-01-17T11:33:53.915Z,2.75
2023-01-17T11:37:36.490Z,2.17
